sensor_id;sensor_type;location;lat;lon;timestamp;pressure;altitude;pressure_sealevel;temperature;humidity
51928;BME280;37953;52.806;18.270;2024-03-29T07:45:21;99376.91;;;10.85;98.36
51928;BME280;37953;52.806;18.270;2024-03-29T07:47:48;99382.09;;;10.83;98.15
51928;BME280;37953;52.806;18.270;2024-03-29T07:50:18;99385.53;;;10.87;97.29
51928;BME280;37953;52.806;18.270;2024-03-29T07:52:45;99397.59;;;10.91;97.26
51928;BME280;37953;52.806;18.270;2024-03-29T07:55:11;99391.47;;;10.93;97.01
51928;BME280;37953;52.806;18.270;2024-03-29T07:57:37;99384.47;;;10.98;96.06
51928;BME280;37953;52.806;18.270;2024-03-29T08:00:04;99400.88;;;11.00;95.95
51928;BME280;37953;52.806;18.270;2024-03-29T08:08:45;99398.16;;;11.08;96.72
51928;BME280;37953;52.806;18.270;2024-03-29T08:11:14;99401.50;;;11.15;94.84
51928;BME280;37953;52.806;18.270;2024-03-29T08:13:40;99396.31;;;11.15;95.20
51928;BME280;37953;52.806;18.270;2024-03-29T08:16:06;99394.59;;;11.15;94.57
51928;BME280;37953;52.806;18.270;2024-03-29T08:18:33;99409.22;;;11.21;94.92
51928;BME280;37953;52.806;18.270;2024-03-29T08:20:59;99407.44;;;11.23;94.72
51928;BME280;37953;52.806;18.270;2024-03-29T08:27:06;99415.06;;;11.32;94.98
51928;BME280;37953;52.806;18.270;2024-03-29T08:29:33;99428.97;;;11.33;94.10
51928;BME280;37953;52.806;18.270;2024-03-29T08:31:58;99430.63;;;11.35;93.31
51928;BME280;37953;52.806;18.270;2024-03-29T08:34:24;99440.97;;;11.38;93.47
51928;BME280;37953;52.806;18.270;2024-03-29T08:36:58;99441.78;;;11.42;92.86
51928;BME280;37953;52.806;18.270;2024-03-29T08:39:25;99438.28;;;11.45;92.12
51928;BME280;37953;52.806;18.270;2024-03-29T08:41:50;99433.91;;;11.47;90.75
51928;BME280;37953;52.806;18.270;2024-03-29T08:44:16;99422.66;;;11.46;90.22
51928;BME280;37953;52.806;18.270;2024-03-29T08:46:42;99428.63;;;11.51;89.80
51928;BME280;37953;52.806;18.270;2024-03-29T08:49:08;99422.53;;;11.52;90.03
51928;BME280;37953;52.806;18.270;2024-03-29T08:51:37;99416.41;;;11.55;90.13
51928;BME280;37953;52.806;18.270;2024-03-29T08:54:03;99423.31;;;11.57;90.28
51928;BME280;37953;52.806;18.270;2024-03-29T08:56:34;99432.81;;;11.60;90.80
51928;BME280;37953;52.806;18.270;2024-03-29T08:59:08;99429.31;;;11.63;90.30
51928;BME280;37953;52.806;18.270;2024-03-29T09:01:54;99442.19;;;11.69;90.47
51928;BME280;37953;52.806;18.270;2024-03-29T09:04:29;99446.50;;;11.70;90.04
51928;BME280;37953;52.806;18.270;2024-03-29T09:06:55;99456.81;;;11.74;90.78
51928;BME280;37953;52.806;18.270;2024-03-29T09:09:21;99459.41;;;11.76;89.45
51928;BME280;37953;52.806;18.270;2024-03-29T09:11:47;99454.19;;;11.77;88.67
51928;BME280;37953;52.806;18.270;2024-03-29T09:14:13;99455.84;;;11.80;88.71
51928;BME280;37953;52.806;18.270;2024-03-29T09:16:48;99460.13;;;11.82;87.97
51928;BME280;37953;52.806;18.270;2024-03-29T09:19:14;99459.28;;;11.84;88.38
51928;BME280;37953;52.806;18.270;2024-03-29T09:21:40;99455.72;;;11.88;88.48
51928;BME280;37953;52.806;18.270;2024-03-29T09:24:07;99456.59;;;11.90;88.41
51928;BME280;37953;52.806;18.270;2024-03-29T09:26:33;99453.91;;;11.93;88.90
51928;BME280;37953;52.806;18.270;2024-03-29T09:29:08;99459.88;;;11.98;89.88
51928;BME280;37953;52.806;18.270;2024-03-29T09:31:35;99456.38;;;12.00;89.95
51928;BME280;37953;52.806;18.270;2024-03-29T09:34:15;99449.31;;;12.06;91.04
51928;BME280;37953;52.806;18.270;2024-03-29T09:36:41;99465.75;;;12.09;90.08
51928;BME280;37953;52.806;18.270;2024-03-29T09:39:07;99459.59;;;12.13;88.53
51928;BME280;37953;52.806;18.270;2024-03-29T09:41:49;99457.00;;;12.13;86.66
51928;BME280;37953;52.806;18.270;2024-03-29T09:44:16;99461.25;;;12.17;86.90
51928;BME280;37953;52.806;18.270;2024-03-29T09:46:43;99476.75;;;12.24;88.29
51928;BME280;37953;52.806;18.270;2024-03-29T09:49:09;99469.72;;;12.27;86.07
51928;BME280;37953;52.806;18.270;2024-03-29T09:51:48;99471.38;;;12.31;85.66
51928;BME280;37953;52.806;18.270;2024-03-29T09:54:15;99462.63;;;12.35;85.82
51928;BME280;37953;52.806;18.270;2024-03-29T09:56:42;99466.03;;;12.39;86.44
51928;BME280;37953;52.806;18.270;2024-03-29T09:59:08;99452.06;;;12.41;86.04
51928;BME280;37953;52.806;18.270;2024-03-29T10:01:34;99457.16;;;12.48;85.36
51928;BME280;37953;52.806;18.270;2024-03-29T10:04:01;99455.41;;;12.48;85.14
51928;BME280;37953;52.806;18.270;2024-03-29T10:06:38;99469.97;;;12.57;83.98
51928;BME280;37953;52.806;18.270;2024-03-29T10:09:05;99465.53;;;12.62;83.92
51928;BME280;37953;52.806;18.270;2024-03-29T10:11:31;99466.28;;;12.67;84.21
51928;BME280;37953;52.806;18.270;2024-03-29T10:13:57;99473.16;;;12.71;84.81
51928;BME280;37953;52.806;18.270;2024-03-29T10:16:23;99486.88;;;12.78;84.30
51928;BME280;37953;52.806;18.270;2024-03-29T10:18:59;99497.22;;;12.82;83.53
51928;BME280;37953;52.806;18.270;2024-03-29T10:21:25;99477.13;;;12.88;81.99
51928;BME280;37953;52.806;18.270;2024-03-29T10:24:13;99477.88;;;12.93;82.30
51928;BME280;37953;52.806;18.270;2024-03-29T10:26:56;99471.69;;;12.97;82.15
51928;BME280;37953;52.806;18.270;2024-03-29T10:29:28;99481.13;;;13.02;81.01
51928;BME280;37953;52.806;18.270;2024-03-29T10:31:55;99465.50;;;13.02;80.13
51928;BME280;37953;52.806;18.270;2024-03-29T10:34:22;99452.22;;;13.12;81.08
51928;BME280;37953;52.806;18.270;2024-03-29T10:36:49;99454.69;;;13.18;80.19
51928;BME280;37953;52.806;18.270;2024-03-29T10:39:17;99449.34;;;13.22;76.50
51928;BME280;37953;52.806;18.270;2024-03-29T10:41:46;99452.75;;;13.26;75.39
51928;BME280;37953;52.806;18.270;2024-03-29T10:44:13;99448.38;;;13.30;75.82
51928;BME280;37953;52.806;18.270;2024-03-29T10:46:41;99448.25;;;13.34;75.26
51928;BME280;37953;52.806;18.270;2024-03-29T10:49:17;99451.63;;;13.38;76.22
51928;BME280;37953;52.806;18.270;2024-03-29T10:51:43;99467.16;;;13.44;75.33
51928;BME280;37953;52.806;18.270;2024-03-29T10:54:13;99461.81;;;13.49;73.72
51928;BME280;37953;52.806;18.270;2024-03-29T10:56:40;99451.28;;;13.52;73.32
51928;BME280;37953;52.806;18.270;2024-03-29T11:05:48;99437.66;;;13.73;76.02
51928;BME280;37953;52.806;18.270;2024-03-29T11:08:34;99448.78;;;13.80;73.12
51928;BME280;37953;52.806;18.270;2024-03-29T11:11:20;99448.69;;;13.84;71.82
51928;BME280;37953;52.806;18.270;2024-03-29T11:14:02;99450.22;;;13.92;71.60
51928;BME280;37953;52.806;18.270;2024-03-29T11:16:32;99448.31;;;13.97;70.22
51928;BME280;37953;52.806;18.270;2024-03-29T11:18:59;99458.72;;;14.00;69.68
51928;BME280;37953;52.806;18.270;2024-03-29T11:21:27;99454.25;;;14.03;69.77
51928;BME280;37953;52.806;18.270;2024-03-29T11:23:54;99448.97;;;14.05;67.67
51928;BME280;37953;52.806;18.270;2024-03-29T11:26:26;99454.16;;;14.07;67.30
51928;BME280;37953;52.806;18.270;2024-03-29T11:28:53;99448.06;;;14.08;67.02
51928;BME280;37953;52.806;18.270;2024-03-29T11:31:30;99445.38;;;14.09;67.65
51928;BME280;37953;52.806;18.270;2024-03-29T11:33:58;99452.28;;;14.12;68.36
51928;BME280;37953;52.806;18.270;2024-03-29T11:36:26;99450.47;;;14.14;67.38
51928;BME280;37953;52.806;18.270;2024-03-29T11:39:02;99440.84;;;14.16;67.32
51928;BME280;37953;52.806;18.270;2024-03-29T11:41:28;99444.31;;;14.16;67.83
51928;BME280;37953;52.806;18.270;2024-03-29T11:44:04;99447.66;;;14.21;67.94
51928;BME280;37953;52.806;18.270;2024-03-29T11:46:32;99441.41;;;14.27;67.27
51928;BME280;37953;52.806;18.270;2024-03-29T11:49:00;99447.34;;;14.32;67.51
51928;BME280;37953;52.806;18.270;2024-03-29T11:51:27;99446.31;;;14.38;67.28
51928;BME280;37953;52.806;18.270;2024-03-29T11:53:54;99440.06;;;14.43;67.77
51928;BME280;37953;52.806;18.270;2024-03-29T11:56:23;99445.16;;;14.48;68.18
51928;BME280;37953;52.806;18.270;2024-03-29T11:58:50;99446.66;;;14.57;66.60
51928;BME280;37953;52.806;18.270;2024-03-29T12:01:24;99447.31;;;14.63;65.94
51928;BME280;37953;52.806;18.270;2024-03-29T12:03:50;99457.63;;;14.68;65.00
51928;BME280;37953;52.806;18.270;2024-03-29T12:06:17;99434.84;;;14.73;64.64
51928;BME280;37953;52.806;18.270;2024-03-29T12:08:44;99445.03;;;14.81;63.76
51928;BME280;37953;52.806;18.270;2024-03-29T12:11:11;99445.72;;;14.88;62.93
51928;BME280;37953;52.806;18.270;2024-03-29T12:13:37;99444.66;;;14.93;62.64
51928;BME280;37953;52.806;18.270;2024-03-29T12:16:05;99449.75;;;14.98;62.58
51928;BME280;37953;52.806;18.270;2024-03-29T12:18:31;99453.03;;;15.04;60.96
51928;BME280;37953;52.806;18.270;2024-03-29T12:20:58;99446.84;;;15.07;60.09
51928;BME280;37953;52.806;18.270;2024-03-29T12:23:24;99452.81;;;15.11;59.34
51928;BME280;37953;52.806;18.270;2024-03-29T12:25:54;99443.91;;;15.18;59.74
51928;BME280;37953;52.806;18.270;2024-03-29T12:28:23;99449.81;;;15.23;59.84
51928;BME280;37953;52.806;18.270;2024-03-29T12:30:49;99442.66;;;15.28;58.50
51928;BME280;37953;52.806;18.270;2024-03-29T12:33:40;99439.00;;;15.34;57.90
51928;BME280;37953;52.806;18.270;2024-03-29T12:36:06;99452.00;;;15.37;56.71
51928;BME280;37953;52.806;18.270;2024-03-29T12:38:35;99452.88;;;15.36;56.71
51928;BME280;37953;52.806;18.270;2024-03-29T12:41:03;99446.75;;;15.37;56.34
51928;BME280;37953;52.806;18.270;2024-03-29T12:43:29;99444.16;;;15.37;55.98
51928;BME280;37953;52.806;18.270;2024-03-29T12:45:55;99441.63;;;15.34;55.77
51928;BME280;37953;52.806;18.270;2024-03-29T12:48:22;99452.13;;;15.32;55.01
51928;BME280;37953;52.806;18.270;2024-03-29T12:50:51;99450.44;;;15.31;55.32
51928;BME280;37953;52.806;18.270;2024-03-29T12:53:19;99443.59;;;15.27;55.95
51928;BME280;37953;52.806;18.270;2024-03-29T12:55:49;99446.25;;;15.25;56.83
51928;BME280;37953;52.806;18.270;2024-03-29T12:58:16;99449.72;;;15.26;57.31
51928;BME280;37953;52.806;18.270;2024-03-29T13:00:51;99444.47;;;15.26;55.01
51928;BME280;37953;52.806;18.270;2024-03-29T13:03:17;99440.94;;;15.29;55.24
51928;BME280;37953;52.806;18.270;2024-03-29T13:05:43;99442.53;;;15.33;55.40
51928;BME280;37953;52.806;18.270;2024-03-29T13:08:13;99436.34;;;15.35;54.87
51928;BME280;37953;52.806;18.270;2024-03-29T13:10:42;99434.47;;;15.39;55.17
51928;BME280;37953;52.806;18.270;2024-03-29T13:13:08;99427.31;;;15.44;54.94
51928;BME280;37953;52.806;18.270;2024-03-29T13:15:36;99418.41;;;15.50;54.71
51928;BME280;37953;52.806;18.270;2024-03-29T13:18:03;99420.81;;;15.56;54.51
51928;BME280;37953;52.806;18.270;2024-03-29T13:20:30;99410.03;;;15.65;54.44
51928;BME280;37953;52.806;18.270;2024-03-29T13:22:57;99407.09;;;15.74;54.57
51928;BME280;37953;52.806;18.270;2024-03-29T13:25:24;99405.03;;;15.84;53.98
51928;BME280;37953;52.806;18.270;2024-03-29T13:27:51;99415.16;;;15.93;53.88
51928;BME280;37953;52.806;18.270;2024-03-29T13:30:20;99420.88;;;16.04;52.55
51928;BME280;37953;52.806;18.270;2024-03-29T13:32:46;99427.53;;;16.13;51.54
51928;BME280;37953;52.806;18.270;2024-03-29T13:35:12;99433.22;;;16.24;52.00
51928;BME280;37953;52.806;18.270;2024-03-29T13:37:39;99434.66;;;16.33;52.34
51928;BME280;37953;52.806;18.270;2024-03-29T13:40:06;99435.97;;;16.45;51.08
51928;BME280;37953;52.806;18.270;2024-03-29T13:42:33;99443.41;;;16.56;50.83
51928;BME280;37953;52.806;18.270;2024-03-29T13:44:59;99428.31;;;16.62;50.09
51928;BME280;37953;52.806;18.270;2024-03-29T13:47:24;99431.44;;;16.72;49.90
51928;BME280;37953;52.806;18.270;2024-03-29T13:49:50;99440.81;;;16.78;50.04
51928;BME280;37953;52.806;18.270;2024-03-29T13:52:24;99437.00;;;16.86;49.13
51928;BME280;37953;52.806;18.270;2024-03-29T13:54:53;99438.47;;;16.94;47.86
51928;BME280;37953;52.806;18.270;2024-03-29T13:57:19;99431.16;;;17.02;47.03
51928;BME280;37953;52.806;18.270;2024-03-29T13:59:46;99429.97;;;17.09;46.66
51928;BME280;37953;52.806;18.270;2024-03-29T14:02:13;99432.59;;;17.09;46.36
51928;BME280;37953;52.806;18.270;2024-03-29T14:04:58;99432.91;;;17.01;45.55
51928;BME280;37953;52.806;18.270;2024-03-29T14:07:33;99435.91;;;16.92;45.63
51928;BME280;37953;52.806;18.270;2024-03-29T14:09:59;99434.47;;;16.85;45.83
51928;BME280;37953;52.806;18.270;2024-03-29T14:12:35;99423.38;;;16.77;45.53
51928;BME280;37953;52.806;18.270;2024-03-29T14:15:02;99426.25;;;16.71;45.69
51928;BME280;37953;52.806;18.270;2024-03-29T14:17:28;99426.47;;;16.64;45.47
51928;BME280;37953;52.806;18.270;2024-03-29T14:19:54;99415.38;;;16.58;45.01
51928;BME280;37953;52.806;18.270;2024-03-29T14:22:20;99417.31;;;16.53;44.08
51928;BME280;37953;52.806;18.270;2024-03-29T14:24:49;99411.25;;;16.51;44.25
51928;BME280;37953;52.806;18.270;2024-03-29T14:27:15;99402.56;;;16.50;44.43
51928;BME280;37953;52.806;18.270;2024-03-29T14:29:41;99399.97;;;16.48;44.75
51928;BME280;37953;52.806;18.270;2024-03-29T14:32:10;99388.66;;;16.48;44.93
51928;BME280;37953;52.806;18.270;2024-03-29T14:34:36;99397.38;;;16.48;45.24
51928;BME280;37953;52.806;18.270;2024-03-29T14:37:05;99388.66;;;16.48;45.32
51928;BME280;37953;52.806;18.270;2024-03-29T14:39:31;99391.41;;;16.45;44.41
51928;BME280;37953;52.806;18.270;2024-03-29T14:41:57;99395.84;;;16.43;45.06
51928;BME280;37953;52.806;18.270;2024-03-29T14:44:25;99389.81;;;16.41;45.68
51928;BME280;37953;52.806;18.270;2024-03-29T14:46:52;99390.78;;;16.38;46.59
51928;BME280;37953;52.806;18.270;2024-03-29T14:49:18;99391.69;;;16.37;46.87
51928;BME280;37953;52.806;18.270;2024-03-29T14:51:45;99383.03;;;16.35;46.25
51928;BME280;37953;52.806;18.270;2024-03-29T14:54:11;99387.41;;;16.35;45.38
51928;BME280;37953;52.806;18.270;2024-03-29T14:56:37;99379.59;;;16.33;45.05
51928;BME280;37953;52.806;18.270;2024-03-29T14:59:04;99386.69;;;16.31;45.14
51928;BME280;37953;52.806;18.270;2024-03-29T15:01:38;99378.88;;;16.29;45.72
51928;BME280;37953;52.806;18.270;2024-03-29T15:04:04;99371.97;;;16.27;46.05
51928;BME280;37953;52.806;18.270;2024-03-29T15:06:30;99370.34;;;16.24;46.96
51928;BME280;37953;52.806;18.270;2024-03-29T15:08:56;99371.25;;;16.23;46.42
51928;BME280;37953;52.806;18.270;2024-03-29T15:11:23;99359.19;;;16.19;46.41
51928;BME280;37953;52.806;18.270;2024-03-29T15:13:49;99360.94;;;16.19;46.69
51928;BME280;37953;52.806;18.270;2024-03-29T15:16:16;99362.84;;;16.15;47.12
51928;BME280;37953;52.806;18.270;2024-03-29T15:18:43;99356.81;;;16.13;47.38
51928;BME280;37953;52.806;18.270;2024-03-29T15:21:09;99346.38;;;16.12;47.41
51928;BME280;37953;52.806;18.270;2024-03-29T15:23:36;99351.72;;;16.08;48.20
51928;BME280;37953;52.806;18.270;2024-03-29T15:26:02;99349.16;;;16.07;48.95
51928;BME280;37953;52.806;18.270;2024-03-29T15:28:48;99358.06;;;16.03;49.05
51928;BME280;37953;52.806;18.270;2024-03-29T15:31:54;99350.16;;;16.04;49.86
51928;BME280;37953;52.806;18.270;2024-03-29T15:34:20;99343.22;;;16.02;49.63
51928;BME280;37953;52.806;18.270;2024-03-29T15:36:46;99341.53;;;16.01;49.59
51928;BME280;37953;52.806;18.270;2024-03-29T15:39:11;99332.03;;;15.98;50.19
51928;BME280;37953;52.806;18.270;2024-03-29T15:41:40;99324.22;;;15.97;50.53
51928;BME280;37953;52.806;18.270;2024-03-29T15:44:07;99316.41;;;15.95;51.01
51928;BME280;37953;52.806;18.270;2024-03-29T15:46:34;99319.03;;;15.95;51.43
51928;BME280;37953;52.806;18.270;2024-03-29T15:49:00;99315.56;;;15.95;51.54
51928;BME280;37953;52.806;18.270;2024-03-29T15:54:21;99311.19;;;15.95;52.47
51928;BME280;37953;52.806;18.270;2024-03-29T15:56:48;99309.50;;;15.94;52.78
51928;BME280;37953;52.806;18.270;2024-03-29T15:59:14;99302.53;;;15.93;52.79
51928;BME280;37953;52.806;18.270;2024-03-29T16:01:41;99303.44;;;15.92;52.32
51928;BME280;37953;52.806;18.270;2024-03-29T16:04:07;99309.53;;;15.93;53.13
51928;BME280;37953;52.806;18.270;2024-03-29T16:06:33;99305.19;;;15.92;54.09
51928;BME280;37953;52.806;18.270;2024-03-29T16:08:59;99286.19;;;15.86;55.35
51928;BME280;37953;52.806;18.270;2024-03-29T16:11:34;99299.19;;;15.90;56.45
51928;BME280;37953;52.806;18.270;2024-03-29T16:14:21;99298.31;;;15.89;56.86
51928;BME280;37953;52.806;18.270;2024-03-29T16:16:57;99294.91;;;15.87;56.71
51928;BME280;37953;52.806;18.270;2024-03-29T16:19:23;99298.44;;;15.86;57.79
51928;BME280;37953;52.806;18.270;2024-03-29T16:21:49;99294.09;;;15.85;58.74
51928;BME280;37953;52.806;18.270;2024-03-29T16:24:15;99289.84;;;15.82;59.54
51928;BME280;37953;52.806;18.270;2024-03-29T16:26:41;99293.38;;;15.81;65.90
51928;BME280;37953;52.806;18.270;2024-03-29T16:29:07;99295.25;;;15.78;63.51
51928;BME280;37953;52.806;18.270;2024-03-29T16:31:37;99304.66;;;15.83;63.42
51928;BME280;37953;52.806;18.270;2024-03-29T16:34:03;99312.84;;;15.74;61.17
51928;BME280;37953;52.806;18.270;2024-03-29T16:36:29;99316.44;;;15.70;60.42
51928;BME280;37953;52.806;18.270;2024-03-29T16:38:55;99321.81;;;15.67;60.41
51928;BME280;37953;52.806;18.270;2024-03-29T16:41:21;99328.84;;;15.65;60.28
51928;BME280;37953;52.806;18.270;2024-03-29T16:43:48;99319.41;;;15.61;60.30
51928;BME280;37953;52.806;18.270;2024-03-29T16:46:14;99321.19;;;15.60;60.86
51928;BME280;37953;52.806;18.270;2024-03-29T16:48:39;99321.28;;;15.57;60.61
51928;BME280;37953;52.806;18.270;2024-03-29T16:51:05;99311.78;;;15.55;60.64
51928;BME280;37953;52.806;18.270;2024-03-29T16:53:51;99303.13;;;15.53;60.39
51928;BME280;37953;52.806;18.270;2024-03-29T16:56:17;99301.47;;;15.50;60.71
51928;BME280;37953;52.806;18.270;2024-03-29T16:58:43;99291.97;;;15.47;60.79
51928;BME280;37953;52.806;18.270;2024-03-29T17:01:09;99284.13;;;15.47;60.55
51928;BME280;37953;52.806;18.270;2024-03-29T17:03:35;99279.00;;;15.44;60.36
51928;BME280;37953;52.806;18.270;2024-03-29T17:06:02;99280.75;;;15.44;60.02
51928;BME280;37953;52.806;18.270;2024-03-29T17:08:28;99280.81;;;15.42;60.32
51928;BME280;37953;52.806;18.270;2024-03-29T17:10:54;99281.72;;;15.41;60.12
51928;BME280;37953;52.806;18.270;2024-03-29T17:13:20;99293.03;;;15.42;59.83
51928;BME280;37953;52.806;18.270;2024-03-29T17:16:06;99285.16;;;15.43;61.12
51928;BME280;37953;52.806;18.270;2024-03-29T17:18:31;99289.56;;;15.41;61.16
51928;BME280;37953;52.806;18.270;2024-03-29T17:20:57;99286.16;;;15.39;60.96
51928;BME280;37953;52.806;18.270;2024-03-29T17:23:23;99294.91;;;15.38;61.19
51928;BME280;37953;52.806;18.270;2024-03-29T17:25:49;99295.84;;;15.37;62.00
51928;BME280;37953;52.806;18.270;2024-03-29T17:28:15;99299.34;;;15.36;63.35
51928;BME280;37953;52.806;18.270;2024-03-29T17:30:41;99302.88;;;15.35;63.16
51928;BME280;37953;52.806;18.270;2024-03-29T17:33:07;99301.16;;;15.34;63.78
51928;BME280;37953;52.806;18.270;2024-03-29T17:35:33;99296.88;;;15.32;64.41
51928;BME280;37953;52.806;18.270;2024-03-29T17:37:59;99294.31;;;15.30;65.18
51928;BME280;37953;52.806;18.270;2024-03-29T17:40:34;99299.56;;;15.30;65.50
51928;BME280;37953;52.806;18.270;2024-03-29T17:43:00;99304.06;;;15.26;65.31
51928;BME280;37953;52.806;18.270;2024-03-29T17:45:26;99295.47;;;15.23;65.27
51928;BME280;37953;52.806;18.270;2024-03-29T17:47:52;99289.53;;;15.18;64.80
51928;BME280;37953;52.806;18.270;2024-03-29T17:50:18;99285.22;;;15.17;64.08
51928;BME280;37953;52.806;18.270;2024-03-29T17:52:44;99286.22;;;15.13;63.50
51928;BME280;37953;52.806;18.270;2024-03-29T17:55:10;99280.25;;;15.09;63.98
51928;BME280;37953;52.806;18.270;2024-03-29T17:57:36;99288.16;;;15.07;64.01
51928;BME280;37953;52.806;18.270;2024-03-29T18:00:02;99288.25;;;15.04;64.14
51928;BME280;37953;52.806;18.270;2024-03-29T18:02:38;99294.44;;;15.02;64.58
51928;BME280;37953;52.806;18.270;2024-03-29T18:05:05;99297.09;;;15.00;64.39
51928;BME280;37953;52.806;18.270;2024-03-29T18:07:30;99296.28;;;14.98;64.43
51928;BME280;37953;52.806;18.270;2024-03-29T18:09:56;99285.94;;;14.95;64.64
51928;BME280;37953;52.806;18.270;2024-03-29T18:12:22;99293.00;;;14.93;65.01
51928;BME280;37953;52.806;18.270;2024-03-29T18:14:48;99288.78;;;14.89;65.37
51928;BME280;37953;52.806;18.270;2024-03-29T18:17:16;99296.66;;;14.88;65.52
51928;BME280;37953;52.806;18.270;2024-03-29T18:19:42;99291.59;;;14.83;66.35
51928;BME280;37953;52.806;18.270;2024-03-29T18:22:08;99301.16;;;14.84;67.16
51928;BME280;37953;52.806;18.270;2024-03-29T18:24:36;99295.22;;;14.79;67.66
51928;BME280;37953;52.806;18.270;2024-03-29T18:27:02;99300.44;;;14.79;67.64
51928;BME280;37953;52.806;18.270;2024-03-29T18:29:28;99301.38;;;14.78;68.10
51928;BME280;37953;52.806;18.270;2024-03-29T18:31:54;99299.63;;;14.77;68.57
51928;BME280;37953;52.806;18.270;2024-03-29T18:34:20;99305.81;;;14.74;68.58
51928;BME280;37953;52.806;18.270;2024-03-29T18:36:46;99307.59;;;14.74;69.31
51928;BME280;37953;52.806;18.270;2024-03-29T18:39:12;99308.47;;;14.73;70.22
51928;BME280;37953;52.806;18.270;2024-03-29T18:41:38;99311.16;;;14.71;70.30
51928;BME280;37953;52.806;18.270;2024-03-29T18:44:05;99313.81;;;14.70;70.73
51928;BME280;37953;52.806;18.270;2024-03-29T18:46:30;99319.06;;;14.70;71.38
51928;BME280;37953;52.806;18.270;2024-03-29T18:48:56;99311.28;;;14.66;71.66
51928;BME280;37953;52.806;18.270;2024-03-29T18:51:22;99319.13;;;14.66;72.27
51928;BME280;37953;52.806;18.270;2024-03-29T18:53:48;99319.13;;;14.66;72.47
51928;BME280;37953;52.806;18.270;2024-03-29T18:56:15;99314.84;;;14.65;72.82
51928;BME280;37953;52.806;18.270;2024-03-29T18:58:42;99319.22;;;14.65;72.91
51928;BME280;37953;52.806;18.270;2024-03-29T19:01:08;99313.09;;;14.64;73.29
51928;BME280;37953;52.806;18.270;2024-03-29T19:03:34;99303.56;;;14.63;73.43
51928;BME280;37953;52.806;18.270;2024-03-29T19:06:00;99303.59;;;14.62;73.67
51928;BME280;37953;52.806;18.270;2024-03-29T19:08:26;99309.69;;;14.62;73.80
51928;BME280;37953;52.806;18.270;2024-03-29T19:10:52;99308.00;;;14.61;74.07
51928;BME280;37953;52.806;18.270;2024-03-29T19:13:18;99309.69;;;14.62;74.42
51928;BME280;37953;52.806;18.270;2024-03-29T19:15:43;99304.53;;;14.61;74.88
51928;BME280;37953;52.806;18.270;2024-03-29T19:18:10;99304.56;;;14.59;74.95
51928;BME280;37953;52.806;18.270;2024-03-29T19:20:38;99308.94;;;14.59;75.40
51928;BME280;37953;52.806;18.270;2024-03-29T19:23:04;99303.03;;;14.52;75.01
51928;BME280;37953;52.806;18.270;2024-03-29T19:25:30;99302.97;;;14.54;75.21
51928;BME280;37953;52.806;18.270;2024-03-29T19:27:56;99297.72;;;14.55;75.04
51928;BME280;37953;52.806;18.270;2024-03-29T19:30:22;99295.13;;;14.55;75.27
51928;BME280;37953;52.806;18.270;2024-03-29T19:32:56;99291.63;;;14.56;75.84
51928;BME280;37953;52.806;18.270;2024-03-29T19:35:23;99283.81;;;14.53;75.54
51928;BME280;37953;52.806;18.270;2024-03-29T19:37:49;99279.53;;;14.52;75.72
51928;BME280;37953;52.806;18.270;2024-03-29T19:40:16;99282.13;;;14.52;75.69
51928;BME280;37953;52.806;18.270;2024-03-29T19:42:42;99282.97;;;14.53;75.84
51928;BME280;37953;52.806;18.270;2024-03-29T19:45:09;99285.63;;;14.51;75.98
51928;BME280;37953;52.806;18.270;2024-03-29T19:47:35;99292.50;;;14.55;75.33
51928;BME280;37953;52.806;18.270;2024-03-29T19:50:05;99290.81;;;14.53;75.44
51928;BME280;37953;52.806;18.270;2024-03-29T19:52:31;99287.28;;;14.54;75.61
51928;BME280;37953;52.806;18.270;2024-03-29T19:54:57;99293.34;;;14.56;75.70
51928;BME280;37953;52.806;18.270;2024-03-29T19:57:23;99293.34;;;14.56;75.94
51928;BME280;37953;52.806;18.270;2024-03-29T19:59:50;99286.38;;;14.56;76.33
51928;BME280;37953;52.806;18.270;2024-03-29T20:02:16;99296.84;;;14.55;76.64
51928;BME280;37953;52.806;18.270;2024-03-29T20:04:51;99302.00;;;14.58;77.35
51928;BME280;37953;52.806;18.270;2024-03-29T20:07:17;99295.13;;;14.54;76.63
51928;BME280;37953;52.806;18.270;2024-03-29T20:09:43;99302.06;;;14.55;77.13
51928;BME280;37953;52.806;18.270;2024-03-29T20:12:09;99299.47;;;14.56;77.39
51928;BME280;37953;52.806;18.270;2024-03-29T20:14:35;99304.69;;;14.55;77.44
51928;BME280;37953;52.806;18.270;2024-03-29T20:17:02;99291.66;;;14.53;77.59
51928;BME280;37953;52.806;18.270;2024-03-29T20:19:37;99292.59;;;14.52;77.73
51928;BME280;37953;52.806;18.270;2024-03-29T20:22:04;99293.44;;;14.53;77.53
51928;BME280;37953;52.806;18.270;2024-03-29T20:24:29;99294.31;;;14.52;77.83
51928;BME280;37953;52.806;18.270;2024-03-29T20:26:58;99294.41;;;14.50;78.95
51928;BME280;37953;52.806;18.270;2024-03-29T20:29:24;99297.91;;;14.49;78.92
51928;BME280;37953;52.806;18.270;2024-03-29T20:31:51;99304.06;;;14.46;79.36
51928;BME280;37953;52.806;18.270;2024-03-29T20:34:22;99309.31;;;14.46;80.15
51928;BME280;37953;52.806;18.270;2024-03-29T20:36:48;99317.19;;;14.45;80.22
51928;BME280;37953;52.806;18.270;2024-03-29T20:39:15;99309.47;;;14.42;80.69
51928;BME280;37953;52.806;18.270;2024-03-29T20:41:43;99314.66;;;14.43;81.10
51928;BME280;37953;52.806;18.270;2024-03-29T20:44:09;99306.72;;;14.45;80.82
51928;BME280;37953;52.806;18.270;2024-03-29T20:46:35;99301.50;;;14.45;81.53
51928;BME280;37953;52.806;18.270;2024-03-29T20:49:01;99307.56;;;14.45;81.83
51928;BME280;37953;52.806;18.270;2024-03-29T20:51:27;99318.00;;;14.47;81.90
51928;BME280;37953;52.806;18.270;2024-03-29T20:53:53;99317.16;;;14.46;82.15
51928;BME280;37953;52.806;18.270;2024-03-29T20:56:19;99317.91;;;14.50;82.63
51928;BME280;37953;52.806;18.270;2024-03-29T20:58:46;99323.06;;;14.52;82.54